createdAt,value
2024-03-16T00:00:16.052Z,76.72
2024-03-16T00:01:16.108Z,76.51
2024-03-16T00:02:16.029Z,76.61
2024-03-16T00:03:15.994Z,76.61
2024-03-16T00:04:16.028Z,76.51
2024-03-16T00:05:15.999Z,76.61
2024-03-16T00:06:15.972Z,76.72
2024-03-16T00:07:15.998Z,76.82
2024-03-16T00:08:15.949Z,76.61
2024-03-16T00:09:15.929Z,76.31
2024-03-16T00:10:15.966Z,76.82
2024-03-16T00:11:15.925Z,76.82
2024-03-16T00:12:15.898Z,76.51
2024-03-16T00:13:15.883Z,76.21
2024-03-16T00:14:15.892Z,76.45
2024-03-16T00:15:15.881Z,76.10
2024-03-16T00:16:15.961Z,76.92
2024-03-16T00:17:15.855Z,76.72
2024-03-16T00:18:15.844Z,77.06
2024-03-16T00:19:15.926Z,77.02
2024-03-16T00:20:15.810Z,76.61
2024-03-16T00:21:15.806Z,76.41
2024-03-16T00:22:15.838Z,76.61
2024-03-16T00:23:15.775Z,76.86
2024-03-16T00:24:15.796Z,76.65
2024-03-16T00:25:16.026Z,76.82
2024-03-16T00:26:15.757Z,76.51
2024-03-16T00:27:15.741Z,77.06
2024-03-16T00:28:15.760Z,76.61
2024-03-16T00:29:15.725Z,77.02
2024-03-16T00:30:15.716Z,76.61
2024-03-16T00:31:15.800Z,76.65
2024-03-16T00:32:15.681Z,76.65
2024-03-16T00:33:15.698Z,76.61
2024-03-16T00:34:15.718Z,76.61
2024-03-16T00:35:15.681Z,76.41
2024-03-16T00:36:15.647Z,77.02
2024-03-16T00:37:15.690Z,76.51
2024-03-16T00:38:15.629Z,76.51
2024-03-16T00:39:15.603Z,76.45
2024-03-16T00:40:15.642Z,76.75
2024-03-16T00:41:15.580Z,76.51
2024-03-16T00:42:15.590Z,76.92
2024-03-16T00:43:15.591Z,76.92
2024-03-16T00:44:15.546Z,76.10
2024-03-16T00:45:15.546Z,76.21
2024-03-16T00:46:15.588Z,76.86
2024-03-16T00:47:15.540Z,76.75
2024-03-16T00:48:15.502Z,76.55
2024-03-16T00:49:15.552Z,77.06
2024-03-16T00:50:15.595Z,76.45
2024-03-16T00:51:15.489Z,76.65
2024-03-16T00:52:15.536Z,76.99
2024-03-16T00:53:15.478Z,76.95
2024-03-16T00:54:15.435Z,76.95
2024-03-16T00:55:15.479Z,77.09
2024-03-16T00:56:15.415Z,76.86
2024-03-16T00:57:15.418Z,77.20
2024-03-16T00:58:15.461Z,77.20
2024-03-16T00:59:15.391Z,77.60
2024-03-16T01:00:15.372Z,77.70
2024-03-16T01:01:15.574Z,77.91
2024-03-16T01:02:15.379Z,77.91
2024-03-16T01:03:15.354Z,78.01
2024-03-16T01:04:15.388Z,77.77
2024-03-16T01:05:15.348Z,77.67
2024-03-16T01:06:15.323Z,77.91
2024-03-16T01:07:15.396Z,77.81
2024-03-16T01:08:15.287Z,77.81
2024-03-16T01:09:15.284Z,77.91
2024-03-16T01:10:15.294Z,77.91
2024-03-16T01:11:15.299Z,77.70
2024-03-16T01:12:15.247Z,77.50
2024-03-16T01:13:15.278Z,78.01
2024-03-16T01:14:15.224Z,77.81
2024-03-16T01:15:15.233Z,77.81
2024-03-16T01:16:15.289Z,77.81
2024-03-16T01:17:15.189Z,77.81
2024-03-16T01:18:15.197Z,77.81
2024-03-16T01:19:15.304Z,77.40
2024-03-16T01:20:15.184Z,77.60
2024-03-16T01:21:15.162Z,77.40
2024-03-16T01:22:15.203Z,77.70
2024-03-16T01:23:15.126Z,77.40
2024-03-16T01:24:15.113Z,77.81
2024-03-16T01:25:15.184Z,77.81
2024-03-16T01:26:15.094Z,77.91
2024-03-16T01:27:15.091Z,77.91
2024-03-16T01:28:15.134Z,77.91
2024-03-16T01:29:15.095Z,77.91
2024-03-16T01:30:15.069Z,77.60
2024-03-16T01:31:15.411Z,77.81
2024-03-16T01:32:15.023Z,77.50
2024-03-16T01:33:15.029Z,77.91
2024-03-16T01:34:15.115Z,77.81
2024-03-16T01:35:15.099Z,77.81
2024-03-16T01:36:14.983Z,77.91
2024-03-16T01:37:15.182Z,77.50
2024-03-16T01:38:14.965Z,77.81
2024-03-16T01:39:15.017Z,77.29
2024-03-16T01:40:15.049Z,77.36
2024-03-16T01:41:14.928Z,77.50
2024-03-16T01:42:14.930Z,76.68
2024-03-16T01:43:14.933Z,76.68
2024-03-16T01:44:14.909Z,76.68
2024-03-16T01:45:14.902Z,77.09
2024-03-16T01:46:14.895Z,76.99
2024-03-16T01:47:14.868Z,77.09
2024-03-16T01:48:14.944Z,76.38
2024-03-16T01:49:14.887Z,77.09
2024-03-16T01:50:14.829Z,76.99
2024-03-16T01:51:14.816Z,76.48
2024-03-16T01:52:14.816Z,76.99
2024-03-16T01:53:14.832Z,77.29
2024-03-16T01:54:14.786Z,77.09
2024-03-16T01:55:14.817Z,76.99
2024-03-16T01:56:14.764Z,77.60
2024-03-16T01:57:14.749Z,77.20
2024-03-16T01:58:14.908Z,77.20
2024-03-16T01:59:14.737Z,77.81
2024-03-16T02:00:14.737Z,77.60
2024-03-16T02:01:14.843Z,77.70
2024-03-16T02:02:14.713Z,77.70
2024-03-16T02:03:14.715Z,77.70
2024-03-16T02:04:14.712Z,77.60
2024-03-16T02:05:14.705Z,77.29
2024-03-16T02:06:14.658Z,77.09
2024-03-16T02:07:14.730Z,76.99
2024-03-16T02:08:14.664Z,77.50
2024-03-16T02:09:14.636Z,77.50
2024-03-16T02:10:14.654Z,77.50
2024-03-16T02:11:14.665Z,77.60
2024-03-16T02:12:14.604Z,78.01
2024-03-16T02:13:14.654Z,78.01
2024-03-16T02:14:14.570Z,78.01
2024-03-16T02:15:14.574Z,77.91
2024-03-16T02:16:14.608Z,77.81
2024-03-16T02:17:14.569Z,77.81
2024-03-16T02:18:14.528Z,77.91
2024-03-16T02:19:14.526Z,78.01
2024-03-16T02:20:14.506Z,77.91
2024-03-16T02:21:14.517Z,77.81
2024-03-16T02:22:14.508Z,77.60
2024-03-16T02:23:14.471Z,77.20
2024-03-16T02:24:14.545Z,77.60
2024-03-16T02:25:14.595Z,77.91
2024-03-16T02:26:14.456Z,77.70
2024-03-16T02:27:14.455Z,77.70
2024-03-16T02:28:14.464Z,77.81
2024-03-16T02:29:14.414Z,77.70
2024-03-16T02:30:14.397Z,77.97
2024-03-16T02:31:14.420Z,78.01
2024-03-16T02:32:14.370Z,77.50
2024-03-16T02:33:14.381Z,78.01
2024-03-16T02:34:14.386Z,77.50
2024-03-16T02:35:14.393Z,78.01
2024-03-16T02:36:14.367Z,77.60
2024-03-16T02:37:14.392Z,78.11
2024-03-16T02:38:14.316Z,77.70
2024-03-16T02:39:14.304Z,78.11
2024-03-16T02:40:14.348Z,78.41
2024-03-16T02:41:14.292Z,78.21
2024-03-16T02:42:14.264Z,78.05
2024-03-16T02:43:14.323Z,78.11
2024-03-16T02:44:14.240Z,78.25
2024-03-16T02:45:14.260Z,78.05
2024-03-16T02:46:14.259Z,77.94
2024-03-16T02:47:14.209Z,77.94
2024-03-16T02:48:14.258Z,77.94
2024-03-16T02:49:14.220Z,77.91
2024-03-16T02:50:14.242Z,78.25
2024-03-16T02:51:14.166Z,78.25
2024-03-16T02:52:14.214Z,78.35
2024-03-16T02:53:14.140Z,78.05
2024-03-16T02:54:14.148Z,78.01
2024-03-16T02:55:14.161Z,77.84
2024-03-16T02:56:14.129Z,77.84
2024-03-16T02:57:14.112Z,77.94
2024-03-16T02:58:14.109Z,78.01
2024-03-16T02:59:14.097Z,77.91
2024-03-16T03:00:14.062Z,78.05
2024-03-16T03:01:14.198Z,78.05
2024-03-16T03:02:14.044Z,77.94
2024-03-16T03:03:14.050Z,78.05
2024-03-16T03:04:14.109Z,78.01
2024-03-16T03:05:14.012Z,78.15
2024-03-16T03:06:13.997Z,78.15
2024-03-16T03:07:14.051Z,77.94
2024-03-16T03:08:13.997Z,77.94
2024-03-16T03:09:13.973Z,77.84
2024-03-16T03:10:14.009Z,77.94
2024-03-16T03:11:13.986Z,77.94
2024-03-16T03:12:13.929Z,77.94
2024-03-16T03:13:14.007Z,77.94
2024-03-16T03:14:13.917Z,78.01
2024-03-16T03:15:13.899Z,78.25
2024-03-16T03:16:13.932Z,78.15
2024-03-16T03:17:13.918Z,78.15
2024-03-16T03:18:13.966Z,77.94
2024-03-16T03:19:13.923Z,78.05
2024-03-16T03:20:13.867Z,77.84
2024-03-16T03:21:13.843Z,78.15
2024-03-16T03:22:13.923Z,78.45
2024-03-16T03:23:13.819Z,78.05
2024-03-16T03:24:13.800Z,78.66
2024-03-16T03:25:13.835Z,78.35
2024-03-16T03:26:13.794Z,78.05
2024-03-16T03:27:13.829Z,78.55
2024-03-16T03:28:13.830Z,78.55
2024-03-16T03:29:13.760Z,78.66
2024-03-16T03:30:13.736Z,78.45
2024-03-16T03:31:13.767Z,78.55
2024-03-16T03:32:13.731Z,78.55
2024-03-16T03:33:13.773Z,77.94
2024-03-16T03:34:13.801Z,78.25
2024-03-16T03:35:13.684Z,78.15
2024-03-16T03:36:13.707Z,78.55
2024-03-16T03:37:13.715Z,78.66
2024-03-16T03:38:13.647Z,78.11
2024-03-16T03:39:13.651Z,77.81
2024-03-16T03:40:13.676Z,77.81
2024-03-16T03:41:13.644Z,77.84
2024-03-16T03:42:13.605Z,77.94
2024-03-16T03:43:13.625Z,77.94
2024-03-16T03:44:13.605Z,78.66
2024-03-16T03:45:13.605Z,78.55
2024-03-16T03:46:13.624Z,78.55
2024-03-16T03:47:13.550Z,78.45
2024-03-16T03:48:13.613Z,78.52
2024-03-16T03:49:13.609Z,78.55
2024-03-16T03:50:13.537Z,78.35
2024-03-16T03:51:13.505Z,78.41
2024-03-16T03:52:13.584Z,78.41
2024-03-16T03:53:13.489Z,78.45
2024-03-16T03:54:13.525Z,78.55
2024-03-16T03:55:13.577Z,78.31
2024-03-16T03:56:13.500Z,78.66
2024-03-16T03:57:13.453Z,78.62
2024-03-16T03:58:13.525Z,78.66
2024-03-16T03:59:13.437Z,78.41
2024-03-16T04:00:13.432Z,78.52
2024-03-16T04:01:13.481Z,78.45
2024-03-16T04:02:13.392Z,78.41
2024-03-16T04:03:13.378Z,78.52
2024-03-16T04:04:13.474Z,78.82
2024-03-16T04:05:13.364Z,78.25
2024-03-16T04:06:13.361Z,78.76
2024-03-16T04:07:13.400Z,78.41
2024-03-16T04:08:13.326Z,78.62
2024-03-16T04:09:13.379Z,78.62
2024-03-16T04:10:13.350Z,78.11
2024-03-16T04:11:13.339Z,78.62
2024-03-16T04:12:13.288Z,78.66
2024-03-16T04:13:13.290Z,78.41
2024-03-16T04:14:13.290Z,78.45
2024-03-16T04:15:13.260Z,79.06
2024-03-16T04:16:13.285Z,78.45
2024-03-16T04:17:13.246Z,78.35
2024-03-16T04:18:13.305Z,78.92
2024-03-16T04:19:13.421Z,79.06
2024-03-16T04:20:13.197Z,79.16
2024-03-16T04:21:13.201Z,78.96
2024-03-16T04:22:13.192Z,78.76
2024-03-16T04:23:13.182Z,78.96
2024-03-16T04:24:13.169Z,78.86
2024-03-16T04:25:13.254Z,78.66
2024-03-16T04:26:13.133Z,78.66
2024-03-16T04:27:13.145Z,78.86
2024-03-16T04:28:13.168Z,78.66
2024-03-16T04:29:13.099Z,79.16
2024-03-16T04:30:13.138Z,78.96
2024-03-16T04:31:13.116Z,78.86
2024-03-16T04:32:13.075Z,78.96
2024-03-16T04:33:13.123Z,78.76
2024-03-16T04:34:13.162Z,78.96
2024-03-16T04:35:13.035Z,78.86
2024-03-16T04:36:13.022Z,78.96
2024-03-16T04:37:13.081Z,79.16
2024-03-16T04:38:13.002Z,79.06
2024-03-16T04:39:12.994Z,78.76
2024-03-16T04:40:13.070Z,78.45
2024-03-16T04:41:12.967Z,79.00
2024-03-16T04:42:13.107Z,79.00
2024-03-16T04:43:13.084Z,79.10
2024-03-16T04:44:12.935Z,78.89
2024-03-16T04:45:12.925Z,78.89
2024-03-16T04:46:12.999Z,79.30
2024-03-16T04:47:12.924Z,79.61
2024-03-16T04:48:12.961Z,79.61
2024-03-16T04:49:12.961Z,79.50
2024-03-16T04:50:12.913Z,79.50
2024-03-16T04:51:12.894Z,79.20
2024-03-16T04:52:12.916Z,79.41
2024-03-16T04:53:12.926Z,79.81
2024-03-16T04:54:12.825Z,79.10
2024-03-16T04:55:13.047Z,79.50
2024-03-16T04:56:12.815Z,80.02
2024-03-16T04:57:12.793Z,79.41
2024-03-16T04:58:12.870Z,79.34
2024-03-16T04:59:12.773Z,79.30
2024-03-16T05:00:12.796Z,79.50
2024-03-16T05:01:12.858Z,79.91
2024-03-16T05:02:12.741Z,80.05
2024-03-16T05:03:12.729Z,80.16
2024-03-16T05:04:12.809Z,80.16
2024-03-16T05:05:12.763Z,79.95
2024-03-16T05:06:12.697Z,79.95
2024-03-16T05:07:12.794Z,79.95
2024-03-16T05:08:12.669Z,79.85
2024-03-16T05:09:12.703Z,79.95
2024-03-16T05:10:12.877Z,79.95
2024-03-16T05:11:12.723Z,79.85
2024-03-16T05:12:12.625Z,79.85
2024-03-16T05:13:12.664Z,79.75
2024-03-16T05:14:12.627Z,79.85
2024-03-16T05:15:12.602Z,80.05
2024-03-16T05:16:12.634Z,79.95
2024-03-16T05:17:12.574Z,79.75
2024-03-16T05:18:12.559Z,80.05
2024-03-16T05:19:12.706Z,80.05
2024-03-16T05:20:12.556Z,80.05
2024-03-16T05:21:12.547Z,79.64
2024-03-16T05:22:12.557Z,80.05
2024-03-16T05:23:12.513Z,79.85
2024-03-16T05:24:12.523Z,79.95
2024-03-16T05:25:12.512Z,79.95
2024-03-16T05:26:12.475Z,79.95
2024-03-16T05:27:12.464Z,79.95
2024-03-16T05:28:12.528Z,79.85
2024-03-16T05:29:12.445Z,79.95
2024-03-16T05:30:12.439Z,79.85
2024-03-16T05:31:12.507Z,80.05
2024-03-16T05:32:12.408Z,79.89
2024-03-16T05:33:12.497Z,79.89
2024-03-16T05:34:12.421Z,79.95
2024-03-16T05:35:12.374Z,79.79
2024-03-16T05:36:12.359Z,79.99
2024-03-16T05:37:12.396Z,79.79
2024-03-16T05:38:12.408Z,80.09
2024-03-16T05:39:12.335Z,79.85
2024-03-16T05:40:12.434Z,79.89
2024-03-16T05:41:12.331Z,79.85
2024-03-16T05:42:12.325Z,79.89
2024-03-16T05:43:12.470Z,79.89
2024-03-16T05:44:12.278Z,79.79
2024-03-16T05:45:12.274Z,79.79
2024-03-16T05:46:12.312Z,80.09
2024-03-16T05:47:12.267Z,79.95
2024-03-16T05:48:12.259Z,79.99
2024-03-16T05:49:12.264Z,80.09
2024-03-16T05:50:12.226Z,79.79
2024-03-16T05:51:12.209Z,79.95
2024-03-16T05:52:12.228Z,79.64
2024-03-16T05:53:12.199Z,79.44
2024-03-16T05:54:12.172Z,78.93
2024-03-16T05:55:12.289Z,79.24
2024-03-16T05:56:12.157Z,79.03
2024-03-16T05:57:12.186Z,78.93
2024-03-16T05:58:12.194Z,78.93
2024-03-16T05:59:12.122Z,78.73
2024-03-16T06:00:12.102Z,78.93
2024-03-16T06:01:12.158Z,78.93
2024-03-16T06:02:12.153Z,78.73
2024-03-16T06:03:12.066Z,79.34
2024-03-16T06:04:12.128Z,78.89
2024-03-16T06:05:12.045Z,78.63
2024-03-16T06:06:12.053Z,78.59
2024-03-16T06:07:12.123Z,78.32
2024-03-16T06:08:12.026Z,78.19
2024-03-16T06:09:12.011Z,78.80
2024-03-16T06:10:12.382Z,78.49
2024-03-16T06:11:12.038Z,78.45
2024-03-16T06:12:11.983Z,78.35
2024-03-16T06:13:12.341Z,77.60
2024-03-16T06:14:11.958Z,77.40
2024-03-16T06:15:11.960Z,76.59
2024-03-16T06:16:11.973Z,75.84
2024-03-16T06:17:11.946Z,75.73
2024-03-16T06:18:11.953Z,76.04
2024-03-16T06:19:11.987Z,75.49
2024-03-16T06:20:11.896Z,74.75
2024-03-16T06:21:11.869Z,74.44
2024-03-16T06:22:11.949Z,73.70
2024-03-16T06:23:11.857Z,73.74
2024-03-16T06:24:11.937Z,73.60
2024-03-16T06:25:11.956Z,72.99
2024-03-16T06:26:11.816Z,72.75
2024-03-16T06:27:11.802Z,72.21
2024-03-16T06:28:11.901Z,71.26
2024-03-16T06:29:11.807Z,70.72
2024-03-16T06:30:11.792Z,70.59
2024-03-16T06:31:11.860Z,69.95
2024-03-16T06:32:11.757Z,69.34
2024-03-16T06:33:11.887Z,69.24
2024-03-16T06:34:11.909Z,68.50
2024-03-16T06:35:11.719Z,68.13
2024-03-16T06:36:11.714Z,68.66
2024-03-16T06:37:11.735Z,69.37
2024-03-16T06:38:11.710Z,69.78
2024-03-16T06:39:11.876Z,68.63
2024-03-16T06:40:11.698Z,67.72
2024-03-16T06:41:11.671Z,67.82
2024-03-16T06:42:11.644Z,67.52
2024-03-16T06:43:11.794Z,68.97
2024-03-16T06:44:11.618Z,69.27
2024-03-16T06:45:11.624Z,69.71
2024-03-16T06:46:11.690Z,69.71
2024-03-16T06:47:11.596Z,70.39
2024-03-16T06:48:11.658Z,70.48
2024-03-16T06:49:11.642Z,70.83
2024-03-16T06:50:11.568Z,71.13
2024-03-16T06:51:11.545Z,71.88
2024-03-16T06:52:11.631Z,72.38
2024-03-16T06:53:11.538Z,72.38
2024-03-16T06:54:11.514Z,72.52
2024-03-16T06:55:11.514Z,73.13
2024-03-16T06:56:11.489Z,73.46
2024-03-16T06:57:11.509Z,73.57
2024-03-16T06:58:11.508Z,73.67
2024-03-16T06:59:11.459Z,73.77
2024-03-16T07:00:11.451Z,73.97
2024-03-16T07:01:11.626Z,74.07
2024-03-16T07:02:11.479Z,73.97
2024-03-16T07:03:11.426Z,74.18
2024-03-16T07:04:11.442Z,74.52
2024-03-16T07:05:11.394Z,74.31
2024-03-16T07:06:11.395Z,74.52
2024-03-16T07:07:11.425Z,74.72
2024-03-16T07:08:11.360Z,74.52
2024-03-16T07:09:11.349Z,74.52
2024-03-16T07:10:11.503Z,74.72
2024-03-16T07:11:11.390Z,74.72
2024-03-16T07:12:11.316Z,74.92
2024-03-16T07:13:11.376Z,74.82
2024-03-16T07:14:11.297Z,74.82
2024-03-16T07:15:11.285Z,74.76
2024-03-16T07:16:11.376Z,75.26
2024-03-16T07:17:11.260Z,75.46
2024-03-16T07:18:11.345Z,75.37
2024-03-16T07:19:11.407Z,75.37
2024-03-16T07:20:11.255Z,75.37
2024-03-16T07:21:11.234Z,75.46
2024-03-16T07:22:11.335Z,75.77
2024-03-16T07:23:11.192Z,75.57
2024-03-16T07:24:11.419Z,75.67
2024-03-16T07:25:11.322Z,75.46
2024-03-16T07:26:11.193Z,75.57
2024-03-16T07:27:11.166Z,75.26
2024-03-16T07:28:11.271Z,75.23
2024-03-16T07:29:11.144Z,75.67
2024-03-16T07:30:11.159Z,75.46
2024-03-16T07:31:11.200Z,75.37
2024-03-16T07:32:11.105Z,75.57
2024-03-16T07:33:11.129Z,75.46
2024-03-16T07:34:11.151Z,75.98
2024-03-16T07:35:11.083Z,75.98
2024-03-16T07:36:11.055Z,75.57
2024-03-16T07:37:11.098Z,75.77
2024-03-16T07:38:11.039Z,75.46
2024-03-16T07:39:11.047Z,75.67
2024-03-16T07:40:11.063Z,75.98
2024-03-16T07:41:11.014Z,76.28
2024-03-16T07:42:10.991Z,75.98
2024-03-16T07:43:11.140Z,76.48
2024-03-16T07:44:10.981Z,76.79
2024-03-16T07:45:10.980Z,76.48
2024-03-16T07:46:10.997Z,76.48
2024-03-16T07:47:10.936Z,76.38
2024-03-16T07:48:11.011Z,76.59
2024-03-16T07:49:10.974Z,76.79
2024-03-16T07:50:10.924Z,76.89
2024-03-16T07:51:10.954Z,76.59
2024-03-16T07:52:10.941Z,76.28
2024-03-16T07:53:10.889Z,76.38
2024-03-16T07:54:10.935Z,76.28
2024-03-16T07:55:10.950Z,76.07
2024-03-16T07:56:10.891Z,76.59
2024-03-16T07:57:10.832Z,76.07
2024-03-16T07:58:10.905Z,76.62
2024-03-16T07:59:11.111Z,76.42
2024-03-16T08:00:10.795Z,76.18
2024-03-16T08:01:10.878Z,76.28
2024-03-16T08:02:10.821Z,76.11
2024-03-16T08:03:10.781Z,75.91
2024-03-16T08:04:10.811Z,76.31
2024-03-16T08:05:10.747Z,75.98
2024-03-16T08:06:10.729Z,76.28
2024-03-16T08:07:10.829Z,76.07
2024-03-16T08:08:10.709Z,76.59
2024-03-16T08:09:10.715Z,76.28
2024-03-16T08:10:10.739Z,76.28
2024-03-16T08:11:10.726Z,75.98
2024-03-16T08:12:10.685Z,76.38
2024-03-16T08:13:10.674Z,76.07
2024-03-16T08:14:10.647Z,75.46
2024-03-16T08:15:10.644Z,75.46
2024-03-16T08:16:10.711Z,75.67
2024-03-16T08:17:10.654Z,75.57
2024-03-16T08:18:10.612Z,75.26
2024-03-16T08:19:10.659Z,75.46
2024-03-16T08:20:11.322Z,75.57
2024-03-16T08:21:10.599Z,75.87
2024-03-16T08:22:10.684Z,76.59
2024-03-16T08:23:10.563Z,75.87
2024-03-16T08:24:10.537Z,75.98
2024-03-16T08:25:10.566Z,75.98
2024-03-16T08:26:10.659Z,75.77
2024-03-16T08:27:10.519Z,76.07
2024-03-16T08:28:10.544Z,75.87
2024-03-16T08:29:10.487Z,76.48
2024-03-16T08:30:10.509Z,76.48
2024-03-16T08:31:10.527Z,76.28
2024-03-16T08:32:10.458Z,76.48
2024-03-16T08:33:10.530Z,76.59
2024-03-16T08:34:10.510Z,76.89
2024-03-16T08:35:10.451Z,76.99
2024-03-16T08:36:10.402Z,77.50
2024-03-16T08:37:10.960Z,77.40
2024-03-16T08:38:10.421Z,77.20
2024-03-16T08:39:10.370Z,76.99
2024-03-16T08:40:10.434Z,76.99
2024-03-16T08:41:10.367Z,76.99
2024-03-16T08:42:10.401Z,76.68
2024-03-16T08:43:10.360Z,76.38
2024-03-16T08:44:10.343Z,76.89
2024-03-16T08:45:10.322Z,76.89
2024-03-16T08:46:10.342Z,76.38
2024-03-16T08:47:10.330Z,76.38
2024-03-16T08:48:10.332Z,76.68
2024-03-16T08:49:10.387Z,76.38
2024-03-16T08:50:10.296Z,76.38
2024-03-16T08:51:10.251Z,76.48
2024-03-16T08:52:10.336Z,76.38
2024-03-16T08:53:10.263Z,76.07
2024-03-16T08:54:10.343Z,76.18
2024-03-16T08:55:10.254Z,76.68
2024-03-16T08:56:10.192Z,76.48
2024-03-16T08:57:10.190Z,76.38
2024-03-16T08:58:10.244Z,76.89
2024-03-16T08:59:10.187Z,77.36
2024-03-16T09:00:10.186Z,76.55
2024-03-16T09:01:10.218Z,76.75
2024-03-16T09:02:10.147Z,76.65
2024-03-16T09:03:10.151Z,76.82
2024-03-16T09:04:10.191Z,76.58
2024-03-16T09:05:10.116Z,76.17
2024-03-16T09:06:10.075Z,75.49
2024-03-16T09:07:10.183Z,75.70
2024-03-16T09:08:10.074Z,76.41
2024-03-16T09:09:10.053Z,76.51
2024-03-16T09:10:10.148Z,76.31
2024-03-16T09:11:10.033Z,76.31
2024-03-16T09:12:10.030Z,76.41
2024-03-16T09:13:10.101Z,76.31
2024-03-16T09:14:09.993Z,75.90
2024-03-16T09:15:10.076Z,76.10
2024-03-16T09:16:10.010Z,76.31
2024-03-16T09:17:09.973Z,76.10
2024-03-16T09:18:09.973Z,76.61
2024-03-16T09:19:10.128Z,76.51
2024-03-16T09:20:09.925Z,76.48
2024-03-16T09:21:09.941Z,75.76
2024-03-16T09:22:10.026Z,75.43
2024-03-16T09:23:09.903Z,75.43
2024-03-16T09:24:09.904Z,74.71
2024-03-16T09:25:10.397Z,74.24
2024-03-16T09:26:09.882Z,73.39
2024-03-16T09:27:09.871Z,72.89
2024-03-16T09:28:09.940Z,72.99
2024-03-16T09:29:09.837Z,72.89
2024-03-16T09:30:09.903Z,72.58
2024-03-16T09:31:09.867Z,72.34
2024-03-16T09:32:09.816Z,71.20
2024-03-16T09:33:09.843Z,70.36
2024-03-16T09:34:09.966Z,70.42
2024-03-16T09:35:09.761Z,69.58
2024-03-16T09:36:09.781Z,69.01
2024-03-16T09:37:09.802Z,67.53
2024-03-16T09:38:09.730Z,66.08
2024-03-16T09:39:09.723Z,65.75
2024-03-16T09:40:09.791Z,63.60
2024-03-16T09:41:09.724Z,63.17
2024-03-16T09:42:09.687Z,61.93
2024-03-16T09:43:10.293Z,62.51
2024-03-16T09:44:09.672Z,62.07
2024-03-16T09:45:09.687Z,60.44
2024-03-16T09:46:09.779Z,60.71
2024-03-16T09:47:09.636Z,59.94
2024-03-16T09:48:09.618Z,60.03
2024-03-16T09:49:09.687Z,60.03
2024-03-16T09:50:09.637Z,60.06
2024-03-16T09:51:09.593Z,61.17
2024-03-16T09:52:09.631Z,60.89
2024-03-16T09:53:09.600Z,60.39
2024-03-16T09:54:09.581Z,61.83
2024-03-16T09:55:09.643Z,60.75
2024-03-16T09:56:09.540Z,61.76
2024-03-16T09:57:09.527Z,61.43
2024-03-16T09:58:11.102Z,60.87
2024-03-16T09:59:17.643Z,60.29
2024-03-16T10:00:10.493Z,59.94
2024-03-16T10:01:09.586Z,59.08
2024-03-16T10:02:09.472Z,58.67
2024-03-16T10:03:09.465Z,57.94
2024-03-16T10:04:09.627Z,57.84
2024-03-16T10:05:09.447Z,57.57
2024-03-16T10:06:09.433Z,57.39
2024-03-16T10:07:09.438Z,57.42
2024-03-16T10:08:09.409Z,57.82
2024-03-16T10:09:09.432Z,56.93
2024-03-16T10:10:09.524Z,56.56
2024-03-16T10:11:09.403Z,56.49
2024-03-16T10:12:09.368Z,57.02
2024-03-16T10:13:09.463Z,57.72
2024-03-16T10:14:09.369Z,58.45
2024-03-16T10:15:09.338Z,58.65
2024-03-16T10:16:09.414Z,58.68
2024-03-16T10:17:09.322Z,58.58
2024-03-16T10:18:09.324Z,58.48
2024-03-16T10:19:09.364Z,58.31
2024-03-16T10:20:09.283Z,58.78
2024-03-16T10:21:09.271Z,57.78
2024-03-16T10:22:09.336Z,58.18
2024-03-16T10:23:09.275Z,58.51
2024-03-16T10:24:09.248Z,58.44
2024-03-16T10:25:09.366Z,58.94
2024-03-16T10:26:09.212Z,59.24
2024-03-16T10:27:09.223Z,60.08
2024-03-16T10:28:09.268Z,62.73
2024-03-16T10:29:09.187Z,63.76
2024-03-16T10:30:09.182Z,65.61
2024-03-16T10:31:09.345Z,65.92
2024-03-16T10:32:09.159Z,66.96
2024-03-16T10:33:09.143Z,67.86
2024-03-16T10:34:09.190Z,68.74
2024-03-16T10:35:09.122Z,69.58
2024-03-16T10:36:09.113Z,70.39
2024-03-16T10:37:09.152Z,71.53
2024-03-16T10:38:09.087Z,71.77
2024-03-16T10:39:09.080Z,72.38
2024-03-16T10:40:09.217Z,73.59
2024-03-16T10:41:09.097Z,74.04
2024-03-16T10:42:09.061Z,74.54
2024-03-16T10:43:09.035Z,74.95
2024-03-16T10:44:09.023Z,74.95
2024-03-16T10:45:09.025Z,75.15
2024-03-16T10:46:09.027Z,75.45
2024-03-16T10:47:08.991Z,76.46
2024-03-16T10:48:08.986Z,76.40
2024-03-16T10:49:09.010Z,76.40
2024-03-16T10:50:08.957Z,76.60
2024-03-16T10:51:08.964Z,76.90
2024-03-16T10:52:08.932Z,77.45
2024-03-16T10:53:08.928Z,77.75
2024-03-16T10:54:08.953Z,78.36
2024-03-16T10:55:08.936Z,78.26
2024-03-16T10:56:08.974Z,77.95
2024-03-16T10:57:08.900Z,78.06
2024-03-16T10:58:08.873Z,78.77
2024-03-16T10:59:08.862Z,78.36
2024-03-16T11:00:08.892Z,78.60
2024-03-16T11:01:08.850Z,78.97
2024-03-16T11:02:08.825Z,79.72
2024-03-16T11:03:08.817Z,79.88
2024-03-16T11:04:08.804Z,79.58
2024-03-16T11:05:08.817Z,79.88
2024-03-16T11:06:08.842Z,79.78
2024-03-16T11:07:08.774Z,79.64
2024-03-16T11:08:08.772Z,78.83
2024-03-16T11:09:08.782Z,78.22
2024-03-16T11:10:08.786Z,78.22
2024-03-16T11:11:08.852Z,77.72
2024-03-16T11:12:08.745Z,77.92
2024-03-16T11:13:08.765Z,77.82
2024-03-16T11:14:08.724Z,78.12
2024-03-16T11:15:08.723Z,77.51
2024-03-16T11:16:08.725Z,78.22
2024-03-16T11:17:08.671Z,77.51
2024-03-16T11:18:08.655Z,77.92
2024-03-16T11:19:08.672Z,77.61
2024-03-16T11:20:08.644Z,77.72
2024-03-16T11:21:08.629Z,77.37
2024-03-16T11:22:08.612Z,77.88
2024-03-16T11:23:08.604Z,78.08
2024-03-16T11:24:08.617Z,78.08
2024-03-16T11:25:09.188Z,77.88
2024-03-16T11:26:08.569Z,76.67
2024-03-16T11:27:08.565Z,77.37
2024-03-16T11:28:08.659Z,77.17
2024-03-16T11:29:08.735Z,77.48
2024-03-16T11:30:10.457Z,78.12
2024-03-16T11:31:09.520Z,76.60
2024-03-16T11:32:08.506Z,76.94
2024-03-16T11:33:08.537Z,77.55
2024-03-16T11:34:08.494Z,78.70
2024-03-16T11:35:08.486Z,79.14
2024-03-16T11:36:08.476Z,79.55
2024-03-16T11:37:08.452Z,79.90
2024-03-16T11:38:08.446Z,80.16
2024-03-16T11:39:08.435Z,80.50
2024-03-16T11:40:08.414Z,80.40
2024-03-16T11:41:08.410Z,80.80
2024-03-16T11:42:08.408Z,80.80
2024-03-16T11:43:08.395Z,81.41
2024-03-16T11:44:08.374Z,80.91
2024-03-16T11:45:08.376Z,80.80
2024-03-16T11:46:08.355Z,81.27
2024-03-16T11:47:08.353Z,81.48
2024-03-16T11:48:08.338Z,81.41
2024-03-16T11:49:08.320Z,81.31
2024-03-16T11:50:08.312Z,80.80
2024-03-16T11:51:08.308Z,81.11
2024-03-16T11:52:08.299Z,81.72
2024-03-16T11:53:08.279Z,81.86
2024-03-16T11:54:08.266Z,82.26
2024-03-16T11:55:08.303Z,82.40
2024-03-16T11:56:08.315Z,83.01
2024-03-16T11:57:08.243Z,82.81
2024-03-16T11:58:08.224Z,83.42
2024-03-16T11:59:08.210Z,83.97
2024-03-16T12:00:08.229Z,84.07
2024-03-16T12:01:08.262Z,84.07
2024-03-16T12:02:08.205Z,84.58
2024-03-16T12:03:08.165Z,84.99
2024-03-16T12:04:08.155Z,84.78
2024-03-16T12:05:08.220Z,84.78
2024-03-16T12:06:08.243Z,84.28
2024-03-16T12:07:08.123Z,84.28
2024-03-16T12:08:08.109Z,84.48
2024-03-16T12:09:08.118Z,84.78
2024-03-16T12:10:08.107Z,84.68
2024-03-16T12:11:08.110Z,85.29
2024-03-16T12:12:08.070Z,85.39
2024-03-16T12:13:08.058Z,84.68
2024-03-16T12:14:08.047Z,84.21
2024-03-16T12:15:08.214Z,83.67
2024-03-16T12:16:08.028Z,82.18
2024-03-16T12:17:08.029Z,82.18
2024-03-16T12:18:08.005Z,82.42
2024-03-16T12:19:07.996Z,81.13
2024-03-16T12:20:08.022Z,81.54
2024-03-16T12:21:07.971Z,80.93
2024-03-16T12:22:07.962Z,81.34
2024-03-16T12:23:08.115Z,81.17
2024-03-16T12:24:07.963Z,80.97
2024-03-16T12:25:07.949Z,80.36
2024-03-16T12:26:07.932Z,80.46
2024-03-16T12:27:07.907Z,80.40
2024-03-16T12:28:07.906Z,81.41
2024-03-16T12:29:07.899Z,81.62
2024-03-16T12:30:07.877Z,81.72
2024-03-16T12:31:07.860Z,81.38
2024-03-16T12:32:07.852Z,81.38
2024-03-16T12:33:07.858Z,80.97
2024-03-16T12:34:07.853Z,81.07
2024-03-16T12:35:07.820Z,81.58
2024-03-16T12:36:07.809Z,81.07
2024-03-16T12:37:07.813Z,81.38
2024-03-16T12:38:07.804Z,80.87
2024-03-16T12:39:07.811Z,81.48
2024-03-16T12:40:07.772Z,81.48
2024-03-16T12:41:07.753Z,81.27
2024-03-16T12:42:07.744Z,81.07
2024-03-16T12:43:07.758Z,80.87
2024-03-16T12:44:07.726Z,81.38
2024-03-16T12:45:07.710Z,81.58
2024-03-16T12:46:07.703Z,81.54
2024-03-16T12:47:07.687Z,81.68
2024-03-16T12:48:07.732Z,81.27
2024-03-16T12:49:07.689Z,81.68
2024-03-16T12:50:07.677Z,81.65
2024-03-16T12:51:07.645Z,81.68
2024-03-16T12:52:07.668Z,81.54